Time;durP1;ratioP1;P1;durP2;ratioP2;P2;SDS_P1;SDS_P2;PMS_P1;PMS_P2;Temp;Humidity;BMP_temperature;BMP_pressure;BME280_temperature;BME280_humidity;BME280_pressure;Samples;Min_cycle;Max_cycle;Signal;HPM_P1;HPM_P2
2022/08/31 00:05:15;;;;;;;3.60;1.50;;;;;;;14.88;78.40;100634.88;130385;1268;107302;-75
2022/08/31 00:08:20;;;;;;;2.30;1.50;;;;;;;14.82;78.82;100636.04;130376;1268;108730;-74
2022/08/31 00:11:29;;;;;;;2.20;1.60;;;;;;;14.79;78.87;100640.04;130318;1267;108601;-73
2022/08/31 00:14:35;;;;;;;2.40;1.50;;;;;;;14.73;78.68;100643.11;130376;1267;108669;-74
2022/08/31 00:17:41;;;;;;;3.50;1.50;;;;;;;14.72;78.68;100645.80;130367;1267;108522;-74
2022/08/31 00:20:48;;;;;;;4.60;1.70;;;;;;;14.71;78.96;100645.29;129244;1267;1555800;-74
2022/08/31 00:23:55;;;;;;;4.40;2.10;;;;;;;14.71;79.22;100646.80;130433;1266;109012;-73
2022/08/31 00:27:00;;;;;;;3.10;2.00;;;;;;;14.69;79.58;100642.21;130369;1268;107682;-74
2022/08/31 00:30:08;;;;;;;2.70;2.10;;;;;;;14.66;79.89;100648.05;130372;1268;109079;-74
2022/08/31 00:33:14;;;;;;;3.30;1.90;;;;;;;14.64;80.06;100646.19;130315;1267;108710;-74
2022/08/31 00:36:22;;;;;;;3.40;2.10;;;;;;;14.66;79.99;100647.02;130353;1267;108714;-74
2022/08/31 00:39:28;;;;;;;3.60;2.40;;;;;;;14.66;80.92;100648.21;130437;1268;108243;-74
2022/08/31 00:42:34;;;;;;;2.90;2.20;;;;;;;14.67;80.94;100647.98;130347;1268;108713;-75
2022/08/31 00:45:40;;;;;;;2.50;2.10;;;;;;;14.65;81.21;100643.94;130388;1267;109028;-75
2022/08/31 00:48:50;;;;;;;2.50;2.20;;;;;;;14.62;81.35;100648.36;130374;1268;108814;-79
2022/08/31 00:51:59;;;;;;;4.20;2.50;;;;;;;14.58;81.89;100644.67;130225;1268;108684;-77
2022/08/31 00:55:10;;;;;;;3.30;2.10;;;;;;;14.53;82.01;100646.58;130331;1268;108881;-74
2022/08/31 00:58:15;;;;;;;3.00;2.30;;;;;;;14.53;82.01;100649.42;130372;1267;108122;-74
2022/08/31 01:01:21;;;;;;;3.80;2.80;;;;;;;14.52;82.11;100647.97;130369;1267;108937;-73
2022/08/31 01:04:26;;;;;;;2.60;2.20;;;;;;;14.50;82.65;100648.14;130332;1268;108934;-73
2022/08/31 01:07:32;;;;;;;2.80;2.10;;;;;;;14.45;82.34;100645.52;130225;1268;108789;-73
2022/08/31 01:10:42;;;;;;;2.30;1.80;;;;;;;14.45;82.25;100648.02;130344;1268;108970;-75
2022/08/31 01:13:48;;;;;;;4.50;2.20;;;;;;;14.46;82.43;100645.16;130406;1268;108940;-75
2022/08/31 01:16:56;;;;;;;3.00;2.00;;;;;;;14.46;82.47;100643.79;130411;1268;109160;-75
2022/08/31 01:20:12;;;;;;;2.50;2.20;;;;;;;14.46;82.11;100648.73;130388;1268;108979;-75
2022/08/31 01:23:20;;;;;;;2.20;2.00;;;;;;;14.46;82.18;100649.90;130373;1268;108889;-75
2022/08/31 01:26:29;;;;;;;5.00;2.30;;;;;;;14.43;82.05;100649.42;130382;1268;108791;-75
2022/08/31 01:29:36;;;;;;;3.50;2.10;;;;;;;14.41;82.04;100650.76;130325;1268;108757;-75
2022/08/31 01:32:42;;;;;;;2.70;2.00;;;;;;;14.40;82.21;100649.83;130439;1268;108716;-75
2022/08/31 01:35:47;;;;;;;4.80;2.50;;;;;;;14.40;82.50;100647.08;130350;1268;108512;-75
2022/08/31 01:38:52;;;;;;;4.20;2.90;;;;;;;14.41;82.46;100647.58;130298;1268;109150;-74
2022/08/31 01:41:58;;;;;;;3.20;2.50;;;;;;;14.38;82.72;100646.80;130116;1268;108706;-75
2022/08/31 01:45:03;;;;;;;3.00;2.10;;;;;;;14.35;82.34;100645.91;130267;1268;110128;-75
2022/08/31 01:48:09;;;;;;;3.30;1.80;;;;;;;14.29;82.31;100643.28;130331;1268;108707;-75
2022/08/31 01:51:17;;;;;;;2.60;2.20;;;;;;;14.28;82.18;100647.36;130322;1268;109372;-74
2022/08/31 01:54:25;;;;;;;4.30;2.30;;;;;;;14.27;82.16;100651.40;130395;1268;108747;-75
2022/08/31 01:57:30;;;;;;;2.80;2.30;;;;;;;14.27;82.48;100645.52;130293;1268;108577;-74
2022/08/31 02:00:55;;;;;;;2.90;2.20;;;;;;;14.25;82.21;100649.80;130534;1266;109173;-74
2022/08/31 02:04:02;;;;;;;2.90;2.00;;;;;;;14.22;82.34;100648.55;130503;1268;108556;-74
2022/08/31 02:07:07;;;;;;;2.20;2.00;;;;;;;14.18;82.10;100656.63;130492;1268;108857;-74
2022/08/31 02:10:13;;;;;;;2.80;2.20;;;;;;;14.17;82.19;100656.52;130518;1265;108788;-75
2022/08/31 02:13:19;;;;;;;4.60;2.60;;;;;;;14.16;82.38;100654.02;130581;1265;108882;-73
2022/08/31 02:16:24;;;;;;;2.30;2.10;;;;;;;14.18;82.24;100654.69;130580;1265;109068;-73
2022/08/31 02:19:29;;;;;;;3.30;2.00;;;;;;;14.22;82.46;100654.62;130631;1265;108867;-72
2022/08/31 02:22:35;;;;;;;3.80;2.10;;;;;;;14.26;82.65;100648.21;130590;1265;108810;-73
2022/08/31 02:25:40;;;;;;;2.30;2.00;;;;;;;14.29;82.87;100648.33;130330;1266;107842;-74
2022/08/31 02:28:46;;;;;;;3.40;2.20;;;;;;;14.33;82.80;100650.06;130563;1265;108845;-72
2022/08/31 02:31:52;;;;;;;2.70;2.00;;;;;;;14.36;82.78;100646.13;130258;1268;108761;-73
2022/08/31 02:34:57;;;;;;;3.30;2.00;;;;;;;14.41;83.03;100644.48;130632;1265;108942;-73
2022/08/31 02:38:03;;;;;;;3.30;2.00;;;;;;;14.47;82.84;100638.66;130604;1265;107691;-73
2022/08/31 02:41:09;;;;;;;3.90;2.00;;;;;;;14.52;82.99;100640.95;130612;1265;108670;-73
2022/08/31 02:44:16;;;;;;;3.50;2.20;;;;;;;14.56;82.89;100645.05;130566;1265;108645;-72
2022/08/31 02:47:26;;;;;;;3.30;1.90;;;;;;;14.57;83.09;100641.20;130594;1265;108807;-72
2022/08/31 02:50:52;;;;;;;3.00;2.00;;;;;;;14.58;82.94;100640.72;130501;1265;108957;-72
2022/08/31 02:53:58;;;;;;;2.90;2.20;;;;;;;14.62;83.26;100641.75;130362;1265;108714;-73
2022/08/31 02:57:03;;;;;;;4.80;2.60;;;;;;;14.62;83.20;100641.14;130597;1265;107748;-74
2022/08/31 03:00:11;;;;;;;3.00;2.30;;;;;;;14.64;83.15;100640.44;130338;1265;108502;-74
2022/08/31 03:03:17;;;;;;;2.60;2.00;;;;;;;14.66;83.24;100642.55;130318;1265;108857;-73
2022/08/31 03:06:23;;;;;;;2.40;1.90;;;;;;;14.66;83.16;100643.41;130549;1265;108705;-72
2022/08/31 03:09:30;;;;;;;5.60;2.50;;;;;;;14.66;83.29;100643.92;130367;1265;108909;-76
2022/08/31 03:12:36;;;;;;;2.90;2.20;;;;;;;14.66;83.64;100642.65;130542;1265;108743;-74
2022/08/31 03:15:42;;;;;;;3.40;2.40;;;;;;;14.68;83.64;100639.79;130411;1265;108929;-74
2022/08/31 03:18:48;;;;;;;2.90;2.60;;;;;;;14.69;83.56;100637.48;130375;1265;109116;-74
2022/08/31 03:21:53;;;;;;;3.50;1.90;;;;;;;14.69;83.47;100637.72;130400;1265;107048;-75
2022/08/31 03:25:00;;;;;;;2.70;1.90;;;;;;;14.67;83.36;100638.58;130555;1265;108739;-75
2022/08/31 03:28:05;;;;;;;3.10;2.00;;;;;;;14.65;83.28;100638.15;130521;1265;108342;-75
2022/08/31 03:31:12;;;;;;;2.80;2.00;;;;;;;14.63;83.52;100639.77;130414;1267;109147;-75
2022/08/31 03:34:18;;;;;;;3.30;2.10;;;;;;;14.61;83.45;100644.30;130461;1265;108648;-75
2022/08/31 03:37:24;;;;;;;3.20;2.30;;;;;;;14.59;83.17;100644.61;130564;1265;108804;-75
2022/08/31 03:40:30;;;;;;;3.40;2.20;;;;;;;14.55;83.15;100647.61;130404;1267;108884;-74
2022/08/31 03:43:35;;;;;;;3.30;1.80;;;;;;;14.52;83.35;100652.43;130331;1267;109319;-75
2022/08/31 03:46:44;;;;;;;2.70;1.80;;;;;;;14.49;83.14;100654.18;130417;1268;108906;-75
2022/08/31 03:49:49;;;;;;;2.60;1.80;;;;;;;14.48;83.21;100652.21;130383;1268;108687;-75
2022/08/31 03:53:02;;;;;;;2.60;2.00;;;;;;;14.49;83.22;100656.64;130408;1267;108811;-75
2022/08/31 03:56:09;;;;;;;2.80;2.00;;;;;;;14.52;83.16;100659.32;130405;1268;108864;-74
2022/08/31 03:59:19;;;;;;;2.70;1.90;;;;;;;14.53;83.20;100653.92;130450;1268;107696;-74
2022/08/31 04:02:43;;;;;;;1.70;1.60;;;;;;;14.53;83.10;100653.67;130384;1268;108826;-74
2022/08/31 04:06:14;;;;;;;14.50;2.80;;;;;;;14.53;82.99;100648.75;130426;1267;109099;-74
2022/08/31 04:09:39;;;;;;;4.40;2.20;;;;;;;14.55;83.15;100648.01;130360;1266;108974;-74
2022/08/31 04:13:13;;;;;;;3.10;2.20;;;;;;;14.59;83.07;100650.25;130229;1268;109168;-74
2022/08/31 04:16:36;;;;;;;2.80;2.20;;;;;;;14.62;83.08;100648.30;130386;1268;108764;-74
2022/08/31 04:20:11;;;;;;;2.80;2.00;;;;;;;14.67;82.95;100644.77;130379;1268;109092;-74
2022/08/31 04:23:24;;;;;;;2.30;2.00;;;;;;;14.68;83.07;100650.85;130457;1267;108658;-73
2022/08/31 04:26:33;;;;;;;2.80;2.20;;;;;;;14.68;83.23;100652.45;130345;1268;108910;-72
2022/08/31 04:29:39;;;;;;;3.30;2.20;;;;;;;14.71;83.28;100656.64;130304;1268;108889;-73
2022/08/31 04:32:44;;;;;;;3.10;2.30;;;;;;;14.73;83.55;100657.61;130379;1268;108689;-70
2022/08/31 04:35:49;;;;;;;3.50;2.60;;;;;;;14.77;83.57;100660.27;130191;1268;108100;-70
2022/08/31 04:38:58;;;;;;;4.20;2.80;;;;;;;14.78;83.87;100666.05;130233;1268;108878;-70
2022/08/31 04:42:04;;;;;;;3.70;2.80;;;;;;;14.79;84.24;100665.40;129940;1268;108962;-70
2022/08/31 04:45:12;;;;;;;3.90;2.70;;;;;;;14.79;84.29;100666.00;130138;1271;108922;-70
2022/08/31 04:48:18;;;;;;;3.70;2.60;;;;;;;14.80;84.42;100669.05;130150;1270;108741;-69
2022/08/31 04:51:29;;;;;;;4.20;2.70;;;;;;;14.81;84.94;100672.74;130270;1268;109595;-70
2022/08/31 04:54:35;;;;;;;4.90;2.70;;;;;;;14.83;85.05;100677.84;130158;1268;108659;-70
2022/08/31 04:57:40;;;;;;;3.70;3.00;;;;;;;14.87;85.21;100685.45;130175;1268;109111;-70
2022/08/31 05:00:46;;;;;;;3.60;3.20;;;;;;;14.91;85.09;100680.85;130011;1268;108798;-70
2022/08/31 05:04:23;;;;;;;3.70;2.90;;;;;;;14.96;85.03;100686.15;130332;1268;108268;-71
2022/08/31 05:07:29;;;;;;;6.20;3.10;;;;;;;14.99;85.18;100683.79;130316;1269;108801;-71
2022/08/31 05:10:39;;;;;;;3.80;2.70;;;;;;;15.04;85.41;100685.56;130282;1267;108676;-71
2022/08/31 05:13:45;;;;;;;4.90;2.90;;;;;;;15.14;85.33;100682.35;130263;1268;108647;-71
2022/08/31 05:17:08;;;;;;;4.80;3.00;;;;;;;15.17;85.74;100686.39;130191;1268;108855;-72
2022/08/31 05:20:14;;;;;;;3.70;3.10;;;;;;;15.20;85.70;100688.84;130282;1268;108690;-71
2022/08/31 05:23:19;;;;;;;3.70;2.90;;;;;;;15.23;85.95;100690.76;130182;1268;108845;-71
2022/08/31 05:26:29;;;;;;;6.10;3.10;;;;;;;15.22;85.88;100690.86;130154;1271;106704;-70
2022/08/31 05:29:35;;;;;;;4.50;3.00;;;;;;;15.28;86.18;100696.11;130384;1268;110234;-71
2022/08/31 05:33:12;;;;;;;4.70;2.90;;;;;;;15.35;86.17;100696.77;130234;1268;109443;-71
2022/08/31 05:36:18;;;;;;;4.30;3.00;;;;;;;15.38;86.21;100695.71;130254;1268;108790;-70
2022/08/31 05:39:24;;;;;;;2.90;2.60;;;;;;;15.42;86.39;100698.18;130178;1268;108606;-70
2022/08/31 05:42:30;;;;;;;7.60;2.80;;;;;;;15.48;86.26;100695.66;130262;1268;109246;-70
2022/08/31 05:45:36;;;;;;;3.60;3.10;;;;;;;15.56;86.10;100698.86;130264;1268;108680;-71
2022/08/31 05:48:41;;;;;;;4.90;3.00;;;;;;;15.64;86.36;100703.41;130209;1268;108724;-71
2022/08/31 05:51:49;;;;;;;4.90;3.00;;;;;;;15.68;86.29;100703.61;130249;1268;109466;-70
2022/08/31 05:54:55;;;;;;;4.00;3.00;;;;;;;15.77;86.46;100708.79;130187;1268;108692;-71
2022/08/31 05:58:01;;;;;;;3.60;2.70;;;;;;;15.87;86.16;100711.73;130278;1266;108742;-70
2022/08/31 06:01:14;;;;;;;3.40;2.40;;;;;;;15.92;86.31;100713.14;130196;1268;107659;-71
2022/08/31 06:04:36;;;;;;;3.00;2.40;;;;;;;15.97;86.18;100712.54;130272;1268;108710;-70
2022/08/31 06:07:42;;;;;;;3.80;2.60;;;;;;;16.10;86.16;100714.86;130322;1268;109992;-71
2022/08/31 06:10:50;;;;;;;4.20;2.50;;;;;;;16.21;86.10;100717.52;130265;1268;108716;-70
2022/08/31 06:13:58;;;;;;;4.20;2.40;;;;;;;16.28;86.12;100720.08;130411;1268;108962;-71
2022/08/31 06:17:05;;;;;;;4.30;2.50;;;;;;;16.32;86.06;100722.98;130224;1267;108653;-71
2022/08/31 06:20:14;;;;;;;4.40;2.20;;;;;;;16.35;85.77;100724.08;130139;1268;108956;-71
2022/08/31 06:23:19;;;;;;;2.60;2.10;;;;;;;16.43;86.00;100722.80;130196;1268;108736;-71
2022/08/31 06:26:29;;;;;;;3.20;2.20;;;;;;;16.54;85.82;100723.33;130334;1268;108743;-71
2022/08/31 06:29:35;;;;;;;4.40;2.60;;;;;;;16.72;85.85;100716.95;130145;1268;108702;-71
2022/08/31 06:32:40;;;;;;;3.00;2.50;;;;;;;16.85;85.55;100716.27;130520;1268;108848;-72
2022/08/31 06:35:47;;;;;;;5.20;2.80;;;;;;;16.95;85.33;100721.34;130307;1268;108724;-71
2022/08/31 06:39:11;;;;;;;3.70;2.00;;;;;;;16.95;84.93;100725.40;130238;1268;109750;-71
2022/08/31 06:42:40;;;;;;;3.30;1.90;;;;;;;16.98;84.77;100721.91;130269;1268;108898;-71
2022/08/31 06:45:45;;;;;;;2.70;1.80;;;;;;;17.00;84.65;100721.49;130311;1268;108987;-70
2022/08/31 06:49:09;;;;;;;5.30;1.90;;;;;;;16.97;84.88;100724.73;130505;1268;108751;-70
2022/08/31 06:52:16;;;;;;;5.50;2.00;;;;;;;16.96;84.35;100728.31;130240;1268;108974;-70
2022/08/31 06:55:24;;;;;;;3.80;1.70;;;;;;;16.84;84.14;100725.76;130390;1268;108708;-71
2022/08/31 06:58:50;;;;;;;3.20;1.80;;;;;;;16.79;84.65;100727.23;130450;1268;108073;-71
2022/08/31 07:02:18;;;;;;;1.90;1.40;;;;;;;16.85;83.91;100724.46;130358;1268;108867;-70
2022/08/31 07:05:24;;;;;;;2.90;1.40;;;;;;;16.92;84.11;100730.17;130316;1268;108772;-71
2022/08/31 07:08:30;;;;;;;2.60;1.60;;;;;;;17.00;83.71;100730.99;130466;1268;109122;-71
2022/08/31 07:11:40;;;;;;;2.70;1.50;;;;;;;17.09;83.56;100733.95;130424;1268;108843;-71
2022/08/31 07:14:45;;;;;;;4.40;1.40;;;;;;;17.21;83.61;100728.15;130324;1265;108870;-72
2022/08/31 07:17:51;;;;;;;2.60;1.20;;;;;;;17.27;82.76;100727.42;130276;1268;109564;-71
2022/08/31 07:21:05;;;;;;;1.80;1.00;;;;;;;17.33;82.80;100729.08;130246;1268;108901;-71
2022/08/31 07:24:13;;;;;;;1.90;1.20;;;;;;;17.44;82.99;100727.23;130447;1268;108983;-72
2022/08/31 07:27:18;;;;;;;1.70;0.90;;;;;;;17.52;81.85;100729.62;130493;1268;108698;-71
2022/08/31 07:30:41;;;;;;;1.70;0.60;;;;;;;17.57;81.64;100735.80;130518;1265;108916;-71
2022/08/31 07:33:48;;;;;;;2.00;0.90;;;;;;;17.62;80.34;100730.80;130320;1268;108722;-72
2022/08/31 07:43:45;;;;;;;2.80;1.40;;;;;;;17.97;80.29;100729.01;130406;1265;107694;-71
2022/08/31 07:46:53;;;;;;;2.30;0.80;;;;;;;18.06;79.52;100726.09;130372;1268;108875;-73
2022/08/31 07:50:01;;;;;;;2.30;0.80;;;;;;;18.16;79.05;100729.73;130351;1267;108732;-72
2022/08/31 07:53:15;;;;;;;1.80;0.80;;;;;;;18.18;77.63;100731.51;130419;1268;108705;-72
2022/08/31 07:56:30;;;;;;;0.90;0.60;;;;;;;18.17;75.23;100731.27;130424;1268;108854;-72
2022/08/31 08:00:07;;;;;;;1.60;0.70;;;;;;;18.21;76.56;100735.39;130451;1267;109017;-71
2022/08/31 08:03:19;;;;;;;1.10;0.60;;;;;;;18.33;75.78;100740.45;130593;1268;108896;-72
2022/08/31 08:06:48;;;;;;;0.90;0.70;;;;;;;18.52;73.82;100748.63;130414;1268;108914;-73
2022/08/31 08:10:13;;;;;;;1.60;0.60;;;;;;;18.71;74.38;100749.71;130453;1268;108954;-72
2022/08/31 08:13:40;;;;;;;2.00;0.60;;;;;;;19.01;76.00;100742.27;130387;1268;108952;-73
2022/08/31 08:16:54;;;;;;;1.70;0.70;;;;;;;19.45;74.39;100740.21;130464;1267;108900;-72
2022/08/31 08:20:15;;;;;;;0.80;0.50;;;;;;;19.78;73.29;100742.52;130443;1268;109004;-74
2022/08/31 08:23:21;;;;;;;1.60;0.70;;;;;;;19.97;72.41;100746.61;130650;1268;109498;-73
2022/08/31 08:27:01;;;;;;;0.90;0.60;;;;;;;19.94;68.66;100750.52;130595;1267;108647;-72
2022/08/31 08:30:27;;;;;;;1.30;0.70;;;;;;;19.71;67.94;100748.90;130610;1266;109292;-72
2022/08/31 08:33:34;;;;;;;1.40;0.70;;;;;;;19.55;70.98;100757.55;130583;1265;109174;-73
2022/08/31 08:36:39;;;;;;;1.70;0.80;;;;;;;19.46;69.74;100763.41;130493;1266;107220;-72
2022/08/31 08:39:45;;;;;;;2.40;0.60;;;;;;;19.33;70.52;100769.78;130527;1265;109014;-71
2022/08/31 08:42:56;;;;;;;1.20;0.70;;;;;;;19.28;69.69;100773.62;130589;1265;108830;-73
2022/08/31 08:46:04;;;;;;;1.00;0.70;;;;;;;19.30;69.96;100773.39;130547;1267;108834;-72
2022/08/31 08:49:19;;;;;;;1.70;0.80;;;;;;;19.33;69.43;100776.65;130641;1267;108771;-72
2022/08/31 08:52:28;;;;;;;1.00;0.50;;;;;;;19.32;69.42;100773.36;130582;1265;108816;-73
2022/08/31 08:55:38;;;;;;;1.30;0.70;;;;;;;19.36;68.57;100775.00;130592;1268;109001;-73
2022/08/31 08:58:44;;;;;;;1.50;0.70;;;;;;;19.52;69.95;100765.48;130363;1268;108837;-72
2022/08/31 09:01:55;;;;;;;1.90;0.70;;;;;;;19.48;68.19;100764.21;130364;1268;108919;-72
2022/08/31 09:05:29;;;;;;;1.80;0.80;;;;;;;19.42;69.35;100766.05;130629;1265;108711;-72
2022/08/31 09:09:11;;;;;;;0.90;0.50;;;;;;;19.37;67.19;100769.43;130681;1265;109008;-71
2022/08/31 09:12:32;;;;;;;1.90;0.60;;;;;;;19.50;69.34;100767.38;130620;1265;108892;-73
2022/08/31 09:15:53;;;;;;;1.70;0.60;;;;;;;19.73;68.36;100765.16;130353;1265;109023;-71
2022/08/31 09:19:08;;;;;;;0.70;0.50;;;;;;;20.09;68.48;100756.27;130576;1265;108673;-71
2022/08/31 09:22:13;;;;;;;0.90;0.60;;;;;;;20.48;68.29;100747.98;130651;1265;108801;-72
2022/08/31 09:25:25;;;;;;;2.20;0.60;;;;;;;20.69;68.16;100742.52;130323;1265;108664;-71
2022/08/31 09:28:47;;;;;;;1.30;0.70;;;;;;;20.77;67.88;100752.60;130600;1265;108793;-72
2022/08/31 09:32:04;;;;;;;1.30;0.70;;;;;;;20.81;67.31;100753.77;130579;1265;108686;-70
2022/08/31 09:35:25;;;;;;;1.10;0.70;;;;;;;20.75;66.66;100755.58;130591;1265;110083;-72
2022/08/31 09:38:33;;;;;;;1.80;0.80;;;;;;;20.61;64.34;100757.15;130558;1265;109312;-73
2022/08/31 09:41:39;;;;;;;1.90;1.30;;;;;;;20.43;63.90;100760.94;130584;1265;108879;-71
2022/08/31 09:44:49;;;;;;;2.10;1.20;;;;;;;20.38;65.01;100764.44;130547;1265;108803;-72
2022/08/31 09:47:59;;;;;;;2.30;1.30;;;;;;;20.41;65.81;100761.81;130586;1265;108881;-72
2022/08/31 09:51:05;;;;;;;2.00;1.10;;;;;;;20.47;65.71;100759.66;130592;1265;108441;-72
2022/08/31 09:57:52;;;;;;;1.40;0.60;;;;;;;20.20;64.41;100759.90;130564;1265;108840;-71
2022/08/31 10:01:11;;;;;;;0.60;0.40;;;;;;;20.14;64.25;100751.81;130524;1266;107231;-72
2022/08/31 10:04:24;;;;;;;1.20;0.60;;;;;;;20.09;63.30;100752.44;130475;1266;108557;-73
2022/08/31 10:07:46;;;;;;;0.80;0.50;;;;;;;19.91;61.16;100750.63;130445;1267;108462;-72
2022/08/31 10:10:52;;;;;;;1.30;0.70;;;;;;;19.90;63.66;100748.83;130410;1268;108701;-71
2022/08/31 10:14:03;;;;;;;1.00;0.50;;;;;;;20.09;63.58;100737.30;130488;1267;108755;-71
2022/08/31 10:17:14;;;;;;;2.00;0.50;;;;;;;20.17;61.82;100732.84;130476;1268;107517;-72
2022/08/31 10:20:25;;;;;;;1.80;0.50;;;;;;;20.17;61.89;100730.58;130463;1268;109014;-70
2022/08/31 10:23:36;;;;;;;1.60;0.60;;;;;;;20.16;61.52;100726.73;130425;1268;108968;-72
2022/08/31 10:26:47;;;;;;;1.10;0.50;;;;;;;20.17;62.15;100722.08;130458;1268;107168;-72
2022/08/31 10:29:59;;;;;;;1.30;0.60;;;;;;;20.19;61.99;100722.09;130507;1267;107624;-72
2022/08/31 10:33:13;;;;;;;1.70;0.70;;;;;;;20.19;62.27;100722.21;130462;1268;107545;-71
2022/08/31 10:36:19;;;;;;;0.90;0.60;;;;;;;20.24;62.37;100725.26;130456;1268;108995;-71
2022/08/31 10:39:33;;;;;;;2.10;0.60;;;;;;;20.24;60.19;100730.56;130375;1268;108848;-71
2022/08/31 10:42:42;;;;;;;1.20;0.60;;;;;;;20.15;58.49;100723.23;130417;1268;108871;-73
2022/08/31 10:45:51;;;;;;;1.00;0.60;;;;;;;20.24;60.75;100719.80;130461;1267;108626;-72
2022/08/31 10:48:58;;;;;;;0.70;0.50;;;;;;;20.35;59.54;100715.35;130523;1268;109091;-72
2022/08/31 10:52:15;;;;;;;1.10;0.50;;;;;;;20.45;59.94;100722.88;130453;1268;108821;-72
2022/08/31 10:55:31;;;;;;;1.10;0.50;;;;;;;20.54;58.83;100724.85;130238;1267;108997;-73
2022/08/31 10:58:49;;;;;;;1.30;0.40;;;;;;;20.52;58.70;100726.67;130351;1267;108662;-72
2022/08/31 11:02:00;;;;;;;1.30;0.50;;;;;;;20.41;57.84;100722.73;130446;1268;108495;-72
2022/08/31 11:05:25;;;;;;;0.90;0.50;;;;;;;20.24;59.54;100726.88;130406;1267;107664;-70
2022/08/31 11:08:48;;;;;;;1.30;0.50;;;;;;;20.08;58.60;100724.45;130332;1268;108609;-71
2022/08/31 11:12:05;;;;;;;1.50;0.60;;;;;;;19.97;59.92;100721.64;130073;1267;108690;-71
2022/08/31 11:15:34;;;;;;;1.00;0.60;;;;;;;20.02;59.57;100715.91;130157;1267;108578;-70
2022/08/31 11:19:09;;;;;;;1.60;0.60;;;;;;;20.08;57.03;100718.13;130183;1268;108893;-73
2022/08/31 11:22:43;;;;;;;0.70;0.50;;;;;;;20.07;58.21;100709.29;130209;1268;108957;-72
2022/08/31 11:26:25;;;;;;;1.00;0.70;;;;;;;20.19;57.52;100704.90;130170;1268;107583;-76
2022/08/31 11:29:40;;;;;;;2.00;0.60;;;;;;;20.22;56.58;100699.70;130205;1268;108899;-76
2022/08/31 11:32:51;;;;;;;1.20;0.70;;;;;;;20.30;57.17;100704.46;130210;1268;108706;-74
2022/08/31 11:36:01;;;;;;;0.80;0.50;;;;;;;20.42;57.76;100703.23;130234;1268;108811;-75
2022/08/31 11:39:37;;;;;;;1.00;0.60;;;;;;;20.53;56.84;100698.48;130277;1267;108946;-76
2022/08/31 11:43:00;;;;;;;1.70;0.60;;;;;;;20.77;55.25;100687.39;130246;1268;108825;-76
2022/08/31 11:46:36;;;;;;;1.60;0.60;;;;;;;20.87;55.03;100683.23;130248;1268;108937;-76
2022/08/31 11:49:50;;;;;;;1.00;0.50;;;;;;;21.15;55.04;100679.05;130324;1268;108802;-76
2022/08/31 11:52:59;;;;;;;1.30;0.60;;;;;;;21.24;55.08;100680.23;130371;1268;108738;-76
2022/08/31 11:56:05;;;;;;;1.40;0.40;;;;;;;21.26;56.51;100672.42;130231;1268;108548;-76
2022/08/31 11:59:30;;;;;;;1.10;0.70;;;;;;;21.26;55.16;100671.21;130209;1268;108811;-75
2022/08/31 12:02:47;;;;;;;1.60;0.50;;;;;;;21.10;54.87;100675.21;130310;1268;108925;-76
2022/08/31 12:05:56;;;;;;;2.00;0.60;;;;;;;20.79;53.21;100679.91;130302;1267;108643;-76
2022/08/31 12:09:20;;;;;;;1.30;0.70;;;;;;;20.50;54.65;100673.96;130316;1267;108572;-75
2022/08/31 12:12:43;;;;;;;1.50;0.50;;;;;;;20.35;55.55;100672.90;130365;1268;108705;-75
2022/08/31 12:16:13;;;;;;;0.80;0.60;;;;;;;20.30;54.83;100664.07;130410;1267;106333;-76
2022/08/31 12:23:35;;;;;;;0.90;0.70;;;;;;;20.79;55.10;100655.77;130419;1268;108749;-76
2022/08/31 12:26:52;;;;;;;1.40;0.50;;;;;;;20.98;53.03;100646.66;130384;1267;108892;-75
2022/08/31 12:30:16;;;;;;;1.20;0.60;;;;;;;21.09;52.73;100642.45;130412;1268;108703;-75
2022/08/31 12:33:26;;;;;;;1.40;0.50;;;;;;;21.32;54.05;100642.67;130341;1268;108700;-76
2022/08/31 12:36:34;;;;;;;1.80;0.60;;;;;;;21.46;52.79;100643.15;130403;1268;108691;-76
2022/08/31 12:39:39;;;;;;;0.90;0.50;;;;;;;21.46;53.01;100642.61;130392;1266;108982;-76
2022/08/31 12:42:53;;;;;;;0.90;0.60;;;;;;;21.42;53.46;100651.23;130344;1268;108708;-75
2022/08/31 12:46:39;;;;;;;1.30;0.80;;;;;;;21.29;52.20;100653.62;130458;1268;108707;-76
2022/08/31 12:50:13;;;;;;;1.20;0.70;;;;;;;21.04;53.10;100650.90;129629;1273;108663;-76
2022/08/31 12:53:44;;;;;;;0.60;0.60;;;;;;;20.83;54.32;100650.36;129746;1273;108504;-76
2022/08/31 12:56:59;;;;;;;1.00;0.60;;;;;;;20.73;53.86;100652.24;129652;1273;108786;-76
2022/08/31 13:00:14;;;;;;;2.00;0.60;;;;;;;20.56;54.02;100652.98;129687;1273;108705;-76
2022/08/31 13:03:24;;;;;;;2.30;0.80;;;;;;;20.47;54.02;100648.86;129665;1273;108693;-76
2022/08/31 13:06:32;;;;;;;1.20;0.70;;;;;;;20.39;54.34;100649.94;129772;1273;108723;-75
2022/08/31 13:09:37;;;;;;;0.80;0.60;;;;;;;20.31;54.50;100646.73;130321;1268;108821;-75
2022/08/31 13:12:49;;;;;;;0.80;0.50;;;;;;;20.23;54.31;100648.05;130210;1268;108847;-75
2022/08/31 13:15:58;;;;;;;;;;;;;;;20.11;53.91;100648.20;130420;1267;108808;-75
2022/08/31 13:19:06;;;;;;;1.20;0.70;;;;;;;19.91;53.00;100647.70;130287;1268;108701;-75
2022/08/31 13:22:15;;;;;;;2.30;0.80;;;;;;;19.72;53.82;100648.71;130312;1268;108729;-75
2022/08/31 13:25:34;;;;;;;2.80;0.90;;;;;;;19.58;53.91;100648.49;130376;1268;108705;-75
2022/08/31 13:28:40;;;;;;;0.90;0.60;;;;;;;19.43;53.95;100646.30;130344;1268;108679;-75
2022/08/31 13:31:51;;;;;;;1.20;0.60;;;;;;;19.32;54.26;100648.64;130322;1268;108802;-75
2022/08/31 13:34:57;;;;;;;1.50;0.70;;;;;;;19.24;54.39;100647.14;130394;1268;108823;-75
2022/08/31 13:38:06;;;;;;;1.60;0.70;;;;;;;19.25;54.47;100646.15;130499;1267;109729;-75
2022/08/31 13:41:24;;;;;;;1.70;0.90;;;;;;;19.34;55.11;100639.86;130269;1268;108577;-75
2022/08/31 13:44:30;;;;;;;1.00;0.70;;;;;;;19.52;54.41;100636.98;130479;1266;108846;-76
2022/08/31 13:47:37;;;;;;;0.90;0.60;;;;;;;19.71;54.88;100635.30;130424;1267;108836;-75
2022/08/31 13:50:50;;;;;;;1.50;0.60;;;;;;;19.90;52.93;100636.04;130397;1267;108843;-75
2022/08/31 13:54:10;;;;;;;1.00;0.50;;;;;;;20.01;50.70;100635.93;130363;1268;108433;-74
2022/08/31 13:57:24;;;;;;;2.50;1.40;;;;;;;20.13;51.45;100628.11;130435;1268;108894;-75
2022/08/31 14:00:37;;;;;;;3.10;2.10;;;;;;;20.31;51.36;100624.99;130424;1268;108814;-75
2022/08/31 14:03:55;;;;;;;2.20;0.80;;;;;;;20.52;50.31;100624.08;130349;1267;108928;-75
2022/08/31 14:07:02;;;;;;;1.00;0.60;;;;;;;20.66;50.94;100616.76;130331;1267;108558;-75
2022/08/31 14:10:18;;;;;;;1.10;0.60;;;;;;;20.88;51.05;100615.17;130381;1267;108432;-75
2022/08/31 14:13:26;;;;;;;1.40;0.70;;;;;;;21.00;50.57;100612.41;130191;1268;107694;-75
2022/08/31 14:16:35;;;;;;;2.60;0.60;;;;;;;21.07;50.51;100611.02;130246;1268;108665;-75
2022/08/31 14:19:41;;;;;;;1.10;0.50;;;;;;;21.11;50.86;100610.64;130182;1268;108737;-75
2022/08/31 14:22:48;;;;;;;1.80;0.70;;;;;;;21.15;49.89;100611.13;130221;1268;108619;-75
2022/08/31 14:25:55;;;;;;;1.10;0.60;;;;;;;21.12;49.01;100613.19;130145;1268;108963;-75
2022/08/31 14:29:08;;;;;;;1.50;0.70;;;;;;;21.07;49.37;100613.50;130276;1268;108770;-76
2022/08/31 14:32:14;;;;;;;1.30;0.70;;;;;;;21.01;49.99;100612.05;130248;1268;108753;-75
2022/08/31 14:35:25;;;;;;;2.00;0.80;;;;;;;20.94;48.77;100622.67;129985;1268;108704;-77
2022/08/31 14:38:30;;;;;;;2.20;0.60;;;;;;;20.78;49.91;100617.08;130155;1268;108648;-78
2022/08/31 14:41:36;;;;;;;1.80;0.60;;;;;;;20.58;48.84;100620.16;130241;1268;108676;-79
2022/08/31 14:44:43;;;;;;;1.50;0.60;;;;;;;20.40;50.35;100617.50;130232;1268;108836;-78
2022/08/31 14:47:51;;;;;;;1.10;0.70;;;;;;;20.29;49.94;100620.66;130233;1268;108698;-78
2022/08/31 14:50:56;;;;;;;5.00;3.40;;;;;;;20.16;50.64;100616.37;130425;1268;108803;-78